Time;durP1;ratioP1;P1;durP2;ratioP2;P2;SDS_P1;SDS_P2;PMS_P1;PMS_P2;Temp;Humidity;BMP_temperature;BMP_pressure;BME280_temperature;BME280_humidity;BME280_pressure;Samples;Min_cycle;Max_cycle;Signal;HPM_P1;HPM_P2
2023/08/21 00:01:02;;;;;;;10.90;8.33;;;28.80;99.90;;;;;;4959471;28;20179;-72
2023/08/21 00:03:27;;;;;;;9.27;8.10;;;28.80;99.90;;;;;;4964253;28;20672;-72
2023/08/21 00:05:53;;;;;;;9.27;8.27;;;28.80;99.90;;;;;;4966112;28;20213;-72
2023/08/21 00:08:18;;;;;;;8.80;8.00;;;28.70;99.90;;;;;;4961525;28;20727;-72
2023/08/21 00:10:44;;;;;;;11.67;8.80;;;28.70;99.90;;;;;;4961368;28;20229;-72
2023/08/21 00:13:10;;;;;;;8.90;8.10;;;28.70;99.90;;;;;;4960106;28;20240;-71
2023/08/21 00:15:38;;;;;;;9.23;8.33;;;28.70;99.90;;;;;;4960662;28;20589;-72
2023/08/21 00:18:04;;;;;;;12.17;8.83;;;28.70;99.90;;;;;;4961806;28;20215;-72
2023/08/21 00:20:30;;;;;;;8.90;7.90;;;28.70;99.90;;;;;;4959375;28;20592;-72
2023/08/21 00:22:56;;;;;;;13.27;8.40;;;28.70;99.90;;;;;;4961475;28;20521;-72
2023/08/21 00:25:22;;;;;;;10.73;9.73;;;28.70;99.90;;;;;;4959475;28;20321;-72
2023/08/21 00:27:48;;;;;;;9.37;8.47;;;28.60;99.90;;;;;;4962931;28;20241;-71
2023/08/21 00:30:14;;;;;;;12.13;9.00;;;28.60;99.90;;;;;;4959435;28;20454;-71
2023/08/21 00:32:41;;;;;;;9.63;8.63;;;28.50;99.90;;;;;;4961863;28;20214;-72
2023/08/21 00:35:07;;;;;;;9.77;8.77;;;28.50;99.90;;;;;;4960983;28;20519;-72
2023/08/21 00:37:32;;;;;;;9.10;8.20;;;28.40;99.90;;;;;;4958887;28;20465;-72
2023/08/21 00:39:58;;;;;;;11.53;8.47;;;28.40;99.90;;;;;;4965468;28;20198;-72
2023/08/21 00:42:23;;;;;;;10.50;8.10;;;28.40;99.90;;;;;;4960171;28;20186;-71
2023/08/21 00:44:49;;;;;;;10.40;8.30;;;28.40;99.90;;;;;;4963018;28;20246;-71
2023/08/21 00:47:15;;;;;;;12.90;8.70;;;28.40;99.90;;;;;;4958757;28;20579;-71
2023/08/21 00:49:40;;;;;;;9.87;8.67;;;28.40;99.90;;;;;;4965092;28;20533;-71
2023/08/21 00:52:10;;;;;;;9.70;8.53;;;28.40;99.90;;;;;;4961774;28;20249;-71
2023/08/21 00:54:36;;;;;;;9.23;8.43;;;28.40;99.90;;;;;;4969858;28;20218;-71
2023/08/21 00:57:02;;;;;;;11.73;8.40;;;28.30;99.90;;;;;;4959664;28;20486;-71
2023/08/21 00:59:29;;;;;;;9.07;8.17;;;28.30;99.90;;;;;;4964291;28;20446;-71
2023/08/21 01:01:55;;;;;;;10.37;8.27;;;28.30;99.90;;;;;;4966261;28;21945;-71
2023/08/21 01:04:21;;;;;;;9.00;8.10;;;28.30;99.90;;;;;;4966212;28;20460;-71
2023/08/21 01:06:48;;;;;;;10.33;8.40;;;28.20;99.90;;;;;;4961106;28;20429;-71
2023/08/21 01:09:33;;;;;;;9.10;8.20;;;28.20;99.90;;;;;;4963960;28;20213;-71
2023/08/21 01:12:36;;;;;;;12.60;9.23;;;28.20;99.90;;;;;;4961401;28;20914;-72
2023/08/21 01:15:06;;;;;;;11.33;7.97;;;28.20;99.90;;;;;;4960277;28;20519;-71
2023/08/21 01:17:35;;;;;;;9.00;8.10;;;28.20;99.90;;;;;;4962278;28;22132;-71
2023/08/21 01:20:02;;;;;;;9.20;8.20;;;28.10;99.90;;;;;;4961981;28;20719;-71
2023/08/21 01:22:45;;;;;;;9.63;7.73;;;28.10;99.90;;;;;;4961742;28;20500;-71
2023/08/21 01:25:11;;;;;;;12.10;8.20;;;28.10;99.90;;;;;;4962493;28;20485;-71
2023/08/21 01:27:38;;;;;;;8.37;7.53;;;28.10;99.90;;;;;;4964576;28;20611;-71
2023/08/21 01:30:06;;;;;;;9.07;8.17;;;28.10;99.90;;;;;;4966269;28;20206;-71
2023/08/21 01:32:50;;;;;;;11.23;8.20;;;28.10;99.90;;;;;;4958256;28;20446;-71
2023/08/21 01:35:15;;;;;;;8.50;7.70;;;28.00;99.90;;;;;;4966024;28;20466;-72
2023/08/21 01:37:42;;;;;;;8.47;7.77;;;28.00;99.90;;;;;;4965952;28;20505;-72
2023/08/21 01:40:08;;;;;;;8.40;7.60;;;28.00;99.90;;;;;;4964262;28;20198;-71
2023/08/21 01:42:34;;;;;;;8.10;7.30;;;28.00;99.90;;;;;;4964761;28;20580;-71
2023/08/21 01:44:59;;;;;;;9.43;8.53;;;27.90;99.90;;;;;;4972921;28;20523;-72
2023/08/21 01:47:25;;;;;;;8.00;7.20;;;27.90;99.90;;;;;;4961329;28;20203;-72
2023/08/21 01:49:53;;;;;;;12.60;8.90;;;27.90;99.90;;;;;;4967185;28;20194;-72
2023/08/21 01:52:19;;;;;;;10.30;8.50;;;27.90;99.90;;;;;;4963139;28;20184;-72
2023/08/21 01:54:47;;;;;;;7.90;7.10;;;27.90;99.90;;;;;;4964334;28;20466;-72
2023/08/21 01:57:13;;;;;;;8.83;7.93;;;27.80;99.90;;;;;;4968259;28;20221;-72
2023/08/21 01:59:39;;;;;;;10.23;9.23;;;27.80;99.90;;;;;;4964795;28;20410;-71
2023/08/21 02:02:04;;;;;;;11.93;8.60;;;27.80;99.90;;;;;;4964210;28;20220;-71
2023/08/21 02:04:30;;;;;;;9.97;7.27;;;27.80;99.90;;;;;;4963323;28;20290;-71
2023/08/21 02:06:55;;;;;;;13.47;9.07;;;27.80;99.90;;;;;;4966438;28;20210;-71
2023/08/21 02:09:21;;;;;;;9.87;8.77;;;27.80;99.90;;;;;;4963134;28;20252;-71
2023/08/21 02:11:47;;;;;;;9.40;8.50;;;27.70;99.90;;;;;;4960443;28;20190;-71
2023/08/21 02:14:12;;;;;;;7.83;7.13;;;27.70;99.90;;;;;;4964906;28;20208;-71
2023/08/21 02:16:38;;;;;;;9.10;8.03;;;27.70;99.90;;;;;;4960296;28;20288;-71
2023/08/21 02:19:03;;;;;;;8.73;7.90;;;27.70;99.90;;;;;;4962090;28;20182;-71
2023/08/21 02:21:29;;;;;;;8.10;7.30;;;27.70;99.90;;;;;;4962752;28;20255;-72
2023/08/21 02:23:55;;;;;;;9.20;7.73;;;27.70;99.90;;;;;;4964202;28;20305;-72
2023/08/21 02:26:20;;;;;;;12.90;7.97;;;27.60;99.90;;;;;;4958802;28;20693;-72
2023/08/21 02:28:46;;;;;;;9.13;8.23;;;27.60;99.90;;;;;;4964140;28;20186;-72
2023/08/21 02:31:12;;;;;;;9.43;8.13;;;27.60;99.90;;;;;;4960456;28;20182;-72
2023/08/21 02:33:38;;;;;;;8.77;7.93;;;27.60;99.90;;;;;;4963158;28;20437;-71
2023/08/21 02:36:04;;;;;;;11.53;8.10;;;27.50;99.90;;;;;;4962087;28;20199;-71
2023/08/21 02:38:29;;;;;;;8.97;8.10;;;27.50;99.90;;;;;;4962802;28;20213;-72
2023/08/21 02:40:55;;;;;;;8.93;8.03;;;27.50;99.90;;;;;;4958750;28;20442;-72
2023/08/21 02:43:21;;;;;;;8.90;8.00;;;27.40;99.90;;;;;;4960936;28;20241;-72
2023/08/21 02:45:46;;;;;;;9.13;8.10;;;27.40;99.90;;;;;;4960957;28;20309;-72
2023/08/21 02:48:12;;;;;;;9.33;8.40;;;27.40;99.90;;;;;;4964530;28;20265;-72
2023/08/21 02:50:37;;;;;;;15.33;9.93;;;27.30;99.90;;;;;;4961261;28;20205;-72
2023/08/21 02:53:03;;;;;;;9.20;8.17;;;27.30;99.90;;;;;;4963838;28;20182;-72
2023/08/21 02:55:29;;;;;;;11.70;9.60;;;27.30;99.90;;;;;;4958727;28;20899;-72
2023/08/21 02:57:54;;;;;;;9.43;8.63;;;27.30;99.90;;;;;;4964499;28;20214;-72
2023/08/21 03:00:20;;;;;;;9.50;8.60;;;27.20;99.90;;;;;;4962113;28;20181;-72
2023/08/21 03:02:45;;;;;;;10.63;9.53;;;27.20;99.90;;;;;;4961309;28;20271;-72
2023/08/21 03:05:11;;;;;;;10.13;8.60;;;27.10;99.90;;;;;;4958916;28;20207;-72
2023/08/21 03:07:37;;;;;;;17.47;15.33;;;27.10;99.90;;;;;;4962191;28;20265;-72
2023/08/21 03:10:03;;;;;;;10.03;9.00;;;27.10;99.90;;;;;;4961120;28;20269;-71
2023/08/21 03:12:29;;;;;;;9.33;8.43;;;27.10;99.90;;;;;;4959941;28;20230;-71
2023/08/21 03:14:54;;;;;;;9.40;8.50;;;27.00;99.90;;;;;;4960341;28;20587;-71
2023/08/21 03:17:20;;;;;;;12.20;8.27;;;27.00;99.90;;;;;;4963104;28;20372;-71
2023/08/21 03:19:45;;;;;;;9.50;8.57;;;27.00;99.90;;;;;;4964446;28;20187;-71
2023/08/21 03:22:11;;;;;;;8.50;7.60;;;27.00;99.90;;;;;;4962261;28;20303;-71
2023/08/21 03:24:37;;;;;;;12.93;8.40;;;27.00;99.90;;;;;;4963125;28;20310;-71
2023/08/21 03:27:03;;;;;;;10.60;9.50;;;26.90;99.90;;;;;;4963059;28;20265;-71
2023/08/21 03:29:28;;;;;;;9.43;8.53;;;26.90;99.90;;;;;;4966138;28;20178;-71
2023/08/21 03:31:56;;;;;;;10.87;9.00;;;26.90;99.90;;;;;;4964379;28;20208;-71
2023/08/21 03:34:22;;;;;;;9.47;8.57;;;26.90;99.90;;;;;;4963895;28;20205;-71
2023/08/21 03:36:48;;;;;;;9.60;8.30;;;26.80;99.90;;;;;;4961824;28;20461;-72
2023/08/21 03:39:13;;;;;;;9.53;8.50;;;26.80;99.90;;;;;;4961767;28;20186;-72
2023/08/21 03:41:39;;;;;;;9.73;8.07;;;26.80;99.90;;;;;;4961564;28;20191;-71
2023/08/21 03:44:05;;;;;;;9.63;8.73;;;26.80;99.90;;;;;;4963902;28;20199;-72
2023/08/21 03:46:30;;;;;;;10.23;9.00;;;26.80;99.90;;;;;;4958141;28;20190;-71
2023/08/21 03:48:56;;;;;;;10.00;8.40;;;26.80;99.90;;;;;;4960470;28;20271;-71
2023/08/21 03:51:22;;;;;;;11.17;9.57;;;26.80;99.90;;;;;;4959697;28;20554;-71
2023/08/21 03:53:47;;;;;;;10.73;9.63;;;26.70;99.90;;;;;;4959857;28;20283;-71
2023/08/21 03:56:13;;;;;;;11.90;9.03;;;26.60;99.90;;;;;;4959211;28;20187;-72
2023/08/21 03:58:38;;;;;;;11.60;8.73;;;26.60;99.90;;;;;;4952201;28;20212;-72
2023/08/21 04:01:04;;;;;;;15.90;10.27;;;26.60;99.90;;;;;;4962090;28;20414;-72
2023/08/21 04:03:30;;;;;;;10.60;8.70;;;26.50;99.90;;;;;;4960047;28;20532;-71
2023/08/21 04:05:56;;;;;;;9.57;7.80;;;26.50;99.90;;;;;;4967299;28;20199;-71
2023/08/21 04:08:22;;;;;;;9.80;8.63;;;26.50;99.90;;;;;;4961519;28;20190;-71
2023/08/21 04:10:48;;;;;;;9.67;8.77;;;26.50;99.90;;;;;;4964274;28;21047;-71
2023/08/21 04:13:14;;;;;;;10.87;9.63;;;26.50;99.90;;;;;;4962381;28;20500;-71
2023/08/21 04:15:45;;;;;;;11.10;9.80;;;26.40;99.90;;;;;;4958419;28;20202;-71
2023/08/21 04:18:10;;;;;;;10.77;8.80;;;26.40;99.90;;;;;;4958254;28;20206;-71
2023/08/21 04:20:36;;;;;;;9.60;8.60;;;26.40;99.90;;;;;;4960176;28;20532;-71
2023/08/21 04:23:02;;;;;;;11.33;8.87;;;26.40;99.90;;;;;;4960384;28;20178;-71
2023/08/21 04:25:28;;;;;;;9.57;8.70;;;26.40;99.90;;;;;;4959769;28;20454;-71
2023/08/21 04:27:53;;;;;;;10.33;9.40;;;26.40;99.90;;;;;;4962595;28;20186;-72
2023/08/21 04:30:19;;;;;;;12.27;8.10;;;26.40;99.90;;;;;;4959680;28;20229;-72
2023/08/21 04:32:45;;;;;;;14.03;8.87;;;26.40;99.90;;;;;;4958038;28;20190;-72
2023/08/21 04:35:10;;;;;;;10.67;9.67;;;26.40;99.90;;;;;;4962169;28;20200;-72
2023/08/21 04:37:42;;;;;;;10.67;9.57;;;26.40;99.90;;;;;;4958835;28;20362;-71
2023/08/21 04:40:08;;;;;;;9.97;8.97;;;26.40;99.90;;;;;;4959986;28;20190;-71
2023/08/21 04:42:34;;;;;;;12.43;8.67;;;26.30;99.90;;;;;;4961087;28;20470;-71
2023/08/21 04:44:59;;;;;;;10.80;8.27;;;26.40;99.90;;;;;;4961738;28;20554;-72
2023/08/21 04:47:26;;;;;;;12.20;8.83;;;26.40;99.90;;;;;;4960183;28;20182;-72
2023/08/21 04:49:53;;;;;;;9.53;8.73;;;26.40;99.90;;;;;;4956160;28;20237;-72
2023/08/21 04:52:19;;;;;;;11.60;9.90;;;26.40;99.90;;;;;;4961440;28;20455;-72
2023/08/21 04:54:46;;;;;;;9.93;8.60;;;26.40;99.90;;;;;;4962427;28;20472;-71
2023/08/21 04:57:11;;;;;;;15.20;10.80;;;26.40;99.90;;;;;;4960191;28;20472;-71
2023/08/21 04:59:38;;;;;;;11.40;9.20;;;26.40;99.90;;;;;;4959128;28;20438;-72
2023/08/21 05:02:04;;;;;;;11.80;8.80;;;26.40;99.90;;;;;;4960348;28;20174;-72
2023/08/21 05:04:29;;;;;;;11.73;8.47;;;26.40;99.90;;;;;;4960959;28;20877;-71
2023/08/21 05:06:55;;;;;;;9.87;8.87;;;26.40;99.90;;;;;;4962696;28;20182;-72
2023/08/21 05:09:20;;;;;;;12.70;9.60;;;26.40;99.90;;;;;;4958670;28;20197;-72
2023/08/21 05:11:46;;;;;;;10.20;9.20;;;26.50;99.90;;;;;;4962062;28;20269;-71
2023/08/21 05:14:11;;;;;;;10.17;9.20;;;26.50;99.90;;;;;;4958768;28;20676;-72
2023/08/21 05:16:37;;;;;;;10.60;9.50;;;26.50;99.90;;;;;;4959446;28;20216;-72
2023/08/21 05:19:03;;;;;;;10.63;9.63;;;26.50;99.90;;;;;;4961911;28;20202;-72
2023/08/21 05:21:28;;;;;;;10.87;8.50;;;26.50;99.90;;;;;;4959449;28;20194;-71
2023/08/21 05:23:54;;;;;;;9.10;8.30;;;26.50;99.90;;;;;;4959649;28;20189;-71
2023/08/21 05:26:20;;;;;;;11.77;10.00;;;26.50;99.90;;;;;;4962619;28;20206;-71
2023/08/21 05:28:45;;;;;;;10.63;9.53;;;26.50;99.90;;;;;;4953481;28;20182;-71
2023/08/21 05:31:11;;;;;;;16.03;8.70;;;26.40;99.90;;;;;;4958738;28;20437;-71
2023/08/21 05:33:37;;;;;;;8.90;8.00;;;26.50;99.90;;;;;;4955018;28;20190;-71
2023/08/21 05:36:03;;;;;;;11.13;9.43;;;26.40;99.90;;;;;;4958627;28;20187;-71
2023/08/21 05:38:28;;;;;;;10.30;9.20;;;26.50;99.90;;;;;;4961230;28;20381;-71
2023/08/21 05:40:54;;;;;;;9.10;8.20;;;26.50;99.90;;;;;;4961051;28;20183;-71
2023/08/21 05:43:19;;;;;;;12.10;9.30;;;26.50;99.90;;;;;;4959347;28;20190;-72
2023/08/21 05:45:45;;;;;;;11.77;10.60;;;26.50;99.90;;;;;;4956961;28;20198;-72
2023/08/21 05:48:10;;;;;;;11.47;10.30;;;26.40;99.90;;;;;;4963712;28;20712;-72
2023/08/21 05:50:36;;;;;;;9.80;8.90;;;26.40;99.90;;;;;;4960715;28;20214;-72
2023/08/21 05:53:06;;;;;;;10.43;9.20;;;26.40;99.90;;;;;;4960862;28;20568;-72
2023/08/21 05:55:31;;;;;;;12.50;10.80;;;26.40;99.90;;;;;;4954689;28;20700;-71
2023/08/21 05:57:57;;;;;;;10.10;9.17;;;26.40;99.90;;;;;;4956947;28;20465;-72
2023/08/21 06:00:23;;;;;;;12.27;9.23;;;26.40;99.90;;;;;;4962394;28;20270;-71
2023/08/21 06:02:48;;;;;;;9.90;9.00;;;26.40;99.90;;;;;;4962737;28;20214;-72
2023/08/21 06:05:14;;;;;;;13.43;9.00;;;26.40;99.90;;;;;;4959470;28;20202;-71
2023/08/21 06:07:43;;;;;;;11.47;9.10;;;26.40;99.90;;;;;;4961366;28;20218;-72
2023/08/21 06:10:11;;;;;;;10.80;9.30;;;26.40;99.90;;;;;;4963528;28;20215;-72
2023/08/21 06:12:37;;;;;;;9.93;8.93;;;26.40;99.90;;;;;;4960225;28;20452;-71
2023/08/21 06:15:03;;;;;;;12.30;10.40;;;26.40;99.90;;;;;;4962337;28;20827;-71
2023/08/21 06:17:28;;;;;;;12.93;8.83;;;26.40;99.90;;;;;;4962487;28;20230;-71
2023/08/21 06:19:54;;;;;;;12.43;8.50;;;26.40;99.90;;;;;;4966552;28;20676;-70
2023/08/21 06:22:19;;;;;;;9.90;8.87;;;26.40;99.90;;;;;;4956223;28;20189;-71
2023/08/21 06:24:45;;;;;;;10.07;9.07;;;26.40;99.90;;;;;;4955494;28;20245;-71
2023/08/21 06:27:11;;;;;;;12.93;11.50;;;26.40;99.90;;;;;;4960085;28;20233;-72
2023/08/21 06:29:37;;;;;;;19.53;15.43;;;26.40;99.90;;;;;;4953585;28;20190;-71
2023/08/21 06:32:03;;;;;;;18.27;11.60;;;26.40;99.90;;;;;;4952209;28;20705;-71
2023/08/21 06:34:29;;;;;;;11.20;9.70;;;26.40;99.90;;;;;;4953716;28;20457;-71
2023/08/21 06:36:54;;;;;;;11.27;9.77;;;26.50;99.90;;;;;;4961245;28;20461;-71
2023/08/21 06:39:20;;;;;;;10.60;9.60;;;26.50;99.90;;;;;;4966995;28;20186;-71
2023/08/21 06:41:45;;;;;;;10.37;9.30;;;26.50;99.90;;;;;;4964471;28;20183;-71
2023/08/21 06:44:11;;;;;;;12.30;9.63;;;26.50;99.90;;;;;;4962799;28;20748;-72
2023/08/21 06:46:36;;;;;;;9.77;8.87;;;26.50;99.90;;;;;;4961828;28;20664;-72
2023/08/21 06:49:02;;;;;;;10.47;9.37;;;26.60;99.90;;;;;;4961954;28;20186;-72
2023/08/21 06:51:28;;;;;;;10.73;9.00;;;26.60;99.90;;;;;;4960494;28;20176;-71
2023/08/21 06:53:53;;;;;;;10.50;9.43;;;26.60;99.90;;;;;;4961445;28;20183;-71
2023/08/21 06:56:19;;;;;;;11.30;9.67;;;26.70;99.90;;;;;;4962960;28;20195;-70
2023/08/21 06:58:44;;;;;;;11.10;9.90;;;26.60;99.90;;;;;;4962936;28;20206;-71
2023/08/21 07:01:10;;;;;;;12.33;11.03;;;26.70;99.90;;;;;;4961057;28;20183;-71
2023/08/21 07:03:36;;;;;;;10.23;9.30;;;26.60;99.90;;;;;;4959580;28;20175;-70
2023/08/21 07:06:02;;;;;;;10.80;9.70;;;26.70;99.90;;;;;;4962626;28;20206;-70
2023/08/21 07:08:29;;;;;;;9.87;8.77;;;26.70;99.90;;;;;;4963715;28;20213;-71
2023/08/21 07:10:54;;;;;;;13.67;9.83;;;26.80;99.90;;;;;;4961429;28;21181;-71
2023/08/21 07:13:20;;;;;;;12.97;10.07;;;26.80;99.90;;;;;;4957078;28;20458;-71
2023/08/21 07:15:46;;;;;;;11.00;9.87;;;26.90;99.90;;;;;;4962137;28;20449;-71
2023/08/21 07:18:13;;;;;;;10.70;9.60;;;26.90;99.90;;;;;;4962241;28;20578;-69
2023/08/21 07:20:39;;;;;;;12.20;9.47;;;27.00;99.90;;;;;;4950266;28;20797;-69
2023/08/21 07:23:04;;;;;;;10.53;9.43;;;27.00;99.90;;;;;;4962067;28;20419;-71
2023/08/21 07:25:30;;;;;;;10.73;9.73;;;27.00;99.90;;;;;;4959123;28;20199;-70
2023/08/21 07:27:56;;;;;;;10.57;9.47;;;27.10;99.90;;;;;;4963258;28;20178;-69
2023/08/21 07:30:24;;;;;;;13.00;10.10;;;27.10;99.90;;;;;;4960412;28;20438;-72
2023/08/21 07:32:50;;;;;;;11.93;8.73;;;27.20;99.90;;;;;;4956148;28;20186;-74
2023/08/21 07:35:16;;;;;;;13.10;10.20;;;27.20;99.90;;;;;;4960966;28;20520;-72
2023/08/21 07:37:45;;;;;;;10.97;9.73;;;27.20;99.90;;;;;;4963049;28;20206;-74
2023/08/21 07:40:11;;;;;;;11.47;10.10;;;27.30;99.90;;;;;;4963190;28;20187;-74
2023/08/21 07:42:37;;;;;;;11.00;10.03;;;27.30;99.90;;;;;;4958587;28;20431;-74
2023/08/21 07:45:03;;;;;;;9.97;8.80;;;27.30;99.90;;;;;;4958317;28;20458;-74
2023/08/21 07:47:28;;;;;;;10.27;9.17;;;27.40;99.90;;;;;;4959480;28;20257;-73
2023/08/21 07:49:54;;;;;;;10.30;9.40;;;27.40;99.90;;;;;;4961639;28;20286;-73
2023/08/21 07:52:20;;;;;;;10.10;9.10;;;27.50;99.90;;;;;;4963358;28;20274;-73
2023/08/21 07:54:46;;;;;;;10.70;9.70;;;27.50;99.90;;;;;;4961012;28;20353;-75
2023/08/21 07:57:13;;;;;;;11.47;9.40;;;27.50;99.90;;;;;;4958608;28;20568;-74
2023/08/21 07:59:38;;;;;;;10.70;9.60;;;27.60;99.90;;;;;;4960048;28;20268;-73
2023/08/21 08:02:04;;;;;;;10.17;9.17;;;27.60;99.90;;;;;;4956728;28;20526;-74
2023/08/21 08:04:30;;;;;;;11.10;10.00;;;27.60;99.90;;;;;;4950259;28;20222;-74
2023/08/21 08:06:56;;;;;;;10.37;9.30;;;27.70;99.90;;;;;;4962713;28;20215;-76
2023/08/21 08:09:21;;;;;;;13.03;9.27;;;27.80;99.90;;;;;;4954553;28;20995;-75
2023/08/21 08:11:47;;;;;;;9.83;8.93;;;27.80;99.90;;;;;;4962254;28;20254;-75
2023/08/21 08:14:12;;;;;;;10.50;8.43;;;27.90;99.90;;;;;;4957019;28;20210;-77
2023/08/21 08:16:38;;;;;;;11.10;9.90;;;27.90;99.90;;;;;;4961864;28;20190;-77
2023/08/21 08:19:03;;;;;;;10.70;9.40;;;28.00;99.90;;;;;;4960687;28;20179;-78
2023/08/21 08:21:29;;;;;;;11.67;9.77;;;28.00;99.90;;;;;;4957630;28;20183;-75
2023/08/21 08:23:55;;;;;;;10.13;9.13;;;28.00;99.90;;;;;;4961917;28;20220;-75
2023/08/21 08:26:21;;;;;;;10.50;9.43;;;28.10;99.90;;;;;;4958798;28;20198;-75
2023/08/21 08:28:46;;;;;;;10.10;9.10;;;28.10;99.90;;;;;;4954714;28;20506;-75
2023/08/21 08:31:16;;;;;;;9.00;8.10;;;28.20;99.90;;;;;;4956539;28;20213;-75
2023/08/21 08:33:42;;;;;;;11.90;8.97;;;28.20;99.90;;;;;;4959971;28;20265;-74
2023/08/21 08:36:08;;;;;;;9.70;8.80;;;28.30;99.90;;;;;;4954027;28;20549;-75
2023/08/21 08:38:33;;;;;;;10.10;8.70;;;28.30;99.90;;;;;;4961795;28;20238;-75
2023/08/21 08:41:02;;;;;;;9.93;8.93;;;28.40;99.90;;;;;;4960141;28;20460;-76
2023/08/21 08:43:28;;;;;;;10.40;9.40;;;28.40;99.90;;;;;;4963275;28;20229;-75
2023/08/21 08:45:58;;;;;;;10.40;9.47;;;28.50;99.90;;;;;;4958942;28;21014;-74
2023/08/21 08:48:23;;;;;;;10.03;8.90;;;28.50;99.90;;;;;;4961404;28;20924;-74
2023/08/21 08:50:51;;;;;;;10.37;9.30;;;28.50;99.90;;;;;;4962741;28;20445;-75
2023/08/21 08:53:18;;;;;;;9.93;9.00;;;28.60;99.90;;;;;;4959189;28;20186;-75
2023/08/21 08:55:48;;;;;;;9.70;8.80;;;28.70;99.90;;;;;;4957910;28;20951;-75
2023/08/21 08:58:13;;;;;;;8.80;7.90;;;28.80;99.90;;;;;;4974988;28;20731;-74
2023/08/21 09:00:40;;;;;;;9.33;8.43;;;28.90;99.90;;;;;;4958860;28;20537;-72
2023/08/21 09:03:06;;;;;;;10.93;9.83;;;28.90;99.90;;;;;;4959884;28;20536;-75
2023/08/21 09:05:34;;;;;;;9.30;8.40;;;28.90;99.90;;;;;;4960072;28;20228;-73
2023/08/21 09:08:08;;;;;;;9.67;8.67;;;28.90;99.90;;;;;;4961004;28;20193;-74
2023/08/21 09:10:36;;;;;;;10.27;9.27;;;29.00;99.90;;;;;;4960826;28;20873;-74
2023/08/21 09:13:16;;;;;;;9.10;8.20;;;29.00;99.90;;;;;;4959640;28;20541;-74
2023/08/21 09:15:49;;;;;;;10.43;8.90;;;29.10;99.90;;;;;;4960269;28;21078;-75
2023/08/21 09:18:15;;;;;;;10.57;8.63;;;29.20;99.90;;;;;;4955457;28;20474;-74
2023/08/21 09:20:41;;;;;;;10.07;9.03;;;29.30;99.90;;;;;;4958329;28;20569;-75
2023/08/21 09:23:08;;;;;;;10.70;9.70;;;29.30;99.90;;;;;;4957279;28;20445;-74
2023/08/21 09:25:40;;;;;;;8.90;8.00;;;29.40;99.90;;;;;;4961737;28;20476;-75
2023/08/21 09:28:08;;;;;;;10.13;8.57;;;29.40;99.90;;;;;;4959327;28;20433;-74
2023/08/21 09:30:48;;;;;;;12.33;9.17;;;29.40;99.90;;;;;;4956024;28;20574;-74
2023/08/21 09:33:16;;;;;;;9.47;8.57;;;29.50;99.90;;;;;;4960839;28;20445;-75
2023/08/21 09:35:44;;;;;;;9.77;8.63;;;29.50;99.90;;;;;;4962315;28;21222;-74
2023/08/21 09:38:10;;;;;;;11.20;8.73;;;29.60;99.90;;;;;;4963474;28;21027;-75
2023/08/21 09:40:40;;;;;;;9.63;8.13;;;29.70;99.90;;;;;;4964412;28;20437;-74
2023/08/21 09:43:08;;;;;;;11.27;10.30;;;29.70;99.90;;;;;;4963784;28;20792;-74
2023/08/21 09:45:34;;;;;;;9.60;7.90;;;29.80;99.90;;;;;;4963678;28;20878;-75
2023/08/21 09:48:01;;;;;;;9.07;8.17;;;29.80;99.90;;;;;;4963057;28;20469;-74
2023/08/21 09:50:29;;;;;;;10.90;8.90;;;29.90;99.90;;;;;;4963509;28;20249;-74
2023/08/21 09:52:56;;;;;;;8.50;7.70;;;30.00;99.90;;;;;;4965287;28;20480;-74
2023/08/21 09:55:22;;;;;;;9.50;8.60;;;30.00;99.90;;;;;;4963615;28;20477;-75
2023/08/21 09:57:48;;;;;;;10.03;9.13;;;30.10;99.90;;;;;;4964928;28;20466;-75
2023/08/21 10:00:20;;;;;;;8.00;7.20;;;30.20;99.90;;;;;;4964664;28;20452;-75
2023/08/21 10:02:50;;;;;;;8.57;7.73;;;30.20;99.90;;;;;;4961022;28;20448;-74
2023/08/21 10:05:19;;;;;;;8.93;8.03;;;30.30;99.90;;;;;;4962948;28;20457;-76
2023/08/21 10:07:48;;;;;;;8.37;7.47;;;30.30;99.90;;;;;;4964555;28;20978;-75
2023/08/21 10:10:14;;;;;;;9.83;8.93;;;30.40;99.90;;;;;;4959206;28;20563;-74
2023/08/21 10:12:40;;;;;;;9.50;8.60;;;30.50;99.90;;;;;;4960896;28;20544;-73
2023/08/21 10:15:09;;;;;;;10.13;9.20;;;30.50;99.90;;;;;;4960882;28;20461;-73
2023/08/21 10:17:35;;;;;;;9.43;8.50;;;30.60;99.90;;;;;;4959237;28;20253;-73
2023/08/21 10:20:10;;;;;;;9.93;9.03;;;30.70;99.90;;;;;;4962036;28;20452;-73
2023/08/21 10:22:46;;;;;;;9.00;8.20;;;30.80;99.90;;;;;;4963887;28;20468;-73
2023/08/21 10:25:28;;;;;;;9.90;8.73;;;30.80;99.90;;;;;;4962000;28;20452;-73
2023/08/21 10:27:55;;;;;;;10.40;9.50;;;30.90;99.90;;;;;;4964435;28;20851;-73
2023/08/21 10:30:28;;;;;;;11.63;10.10;;;30.90;99.90;;;;;;4963445;28;20444;-73
2023/08/21 10:32:58;;;;;;;10.27;8.60;;;30.90;99.90;;;;;;4962032;28;20435;-74
2023/08/21 10:35:29;;;;;;;11.53;9.37;;;31.00;99.90;;;;;;4961001;28;20465;-75
2023/08/21 10:38:17;;;;;;;9.13;8.23;;;31.10;99.90;;;;;;4965358;28;20838;-73
2023/08/21 10:41:08;;;;;;;9.60;8.70;;;31.10;99.90;;;;;;4964642;28;21117;-74
2023/08/21 10:43:41;;;;;;;11.63;8.50;;;31.20;99.90;;;;;;4961538;28;20491;-74
2023/08/21 10:46:08;;;;;;;10.10;9.10;;;31.30;99.90;;;;;;4961763;28;20442;-73
2023/08/21 10:48:34;;;;;;;9.40;8.30;;;31.30;99.90;;;;;;4960176;28;20489;-75
2023/08/21 10:51:03;;;;;;;11.17;8.83;;;31.30;99.90;;;;;;4961957;28;20426;-74
2023/08/21 10:53:29;;;;;;;9.60;8.00;;;31.40;99.90;;;;;;4960495;28;20190;-75
2023/08/21 10:55:55;;;;;;;13.20;7.90;;;31.40;99.90;;;;;;4959936;28;20556;-76
2023/08/21 10:58:21;;;;;;;8.40;7.70;;;31.50;99.90;;;;;;4964879;28;20497;-76
2023/08/21 11:00:47;;;;;;;9.07;7.90;;;31.50;99.90;;;;;;4962525;28;20474;-74
2023/08/21 11:03:15;;;;;;;8.97;8.07;;;31.60;99.90;;;;;;4962933;28;20265;-74
2023/08/21 11:05:40;;;;;;;7.93;7.23;;;31.70;99.90;;;;;;4958952;28;20202;-75
2023/08/21 11:08:06;;;;;;;9.00;8.10;;;31.80;99.90;;;;;;4964428;28;20442;-75
2023/08/21 11:10:33;;;;;;;8.80;6.77;;;31.80;99.90;;;;;;4960438;28;20175;-75
2023/08/21 11:13:02;;;;;;;9.10;7.47;;;31.80;99.90;;;;;;4964335;28;20500;-74
2023/08/21 11:15:29;;;;;;;9.33;7.50;;;31.90;99.90;;;;;;4960842;28;21217;-74
2023/08/21 11:17:59;;;;;;;8.63;7.10;;;31.90;99.90;;;;;;4963349;28;20474;-75
2023/08/21 11:20:35;;;;;;;9.27;7.50;;;32.00;99.90;;;;;;4960380;28;20473;-75
2023/08/21 11:23:06;;;;;;;8.00;7.27;;;32.10;99.90;;;;;;4962855;28;20419;-74
2023/08/21 11:25:33;;;;;;;9.20;7.27;;;32.10;99.90;;;;;;4960243;28;20463;-73
2023/08/21 11:27:59;;;;;;;8.30;7.47;;;32.10;99.90;;;;;;4963420;28;20408;-74
2023/08/21 11:30:25;;;;;;;7.93;7.30;;;32.20;99.90;;;;;;4959609;28;20428;-70
2023/08/21 11:33:10;;;;;;;8.87;7.97;;;32.20;99.90;;;;;;4958692;28;20465;-71
2023/08/21 11:35:37;;;;;;;7.73;7.00;;;32.20;99.90;;;;;;4955828;28;20202;-72
2023/08/21 11:38:03;;;;;;;9.13;7.70;;;32.30;99.90;;;;;;4959432;28;20461;-74
2023/08/21 11:40:29;;;;;;;9.63;8.63;;;32.40;99.90;;;;;;4959619;28;20982;-75
2023/08/21 11:43:03;;;;;;;8.10;7.17;;;32.40;99.90;;;;;;4965750;28;20488;-74
2023/08/21 11:45:29;;;;;;;9.13;8.17;;;32.50;99.90;;;;;;4955224;28;20224;-74
2023/08/21 11:47:58;;;;;;;7.90;7.20;;;32.60;99.90;;;;;;4955069;28;20563;-73
2023/08/21 11:50:24;;;;;;;7.23;6.50;;;32.70;99.90;;;;;;4954806;28;20505;-73
2023/08/21 11:52:54;;;;;;;7.47;6.77;;;32.90;99.90;;;;;;4964407;28;20408;-74
2023/08/21 11:55:20;;;;;;;10.83;7.50;;;33.00;99.90;;;;;;4957866;28;20470;-73
2023/08/21 11:57:50;;;;;;;7.90;7.10;;;33.20;99.90;;;;;;4956139;28;21069;-73
2023/08/21 12:00:25;;;;;;;8.30;7.50;;;33.30;99.90;;;;;;4960865;28;20189;-73
2023/08/21 12:02:59;;;;;;;9.90;7.03;;;33.50;99.90;;;;;;4966283;28;20444;-74
2023/08/21 12:05:26;;;;;;;13.47;7.93;;;33.70;99.90;;;;;;4960487;28;20468;-74
2023/08/21 12:07:52;;;;;;;8.97;7.67;;;33.90;99.90;;;;;;4958562;28;21899;-73
2023/08/21 12:10:26;;;;;;;8.13;7.43;;;34.20;99.90;;;;;;4961194;28;20454;-73
2023/08/21 12:12:52;;;;;;;10.67;7.40;;;34.60;99.90;;;;;;4957833;28;21062;-73
2023/08/21 12:15:17;;;;;;;8.40;7.57;;;35.10;99.90;;;;;;4960292;28;20436;-74
2023/08/21 12:17:43;;;;;;;7.03;6.43;;;35.60;99.90;;;;;;4959759;28;20822;-74
2023/08/21 12:20:11;;;;;;;8.30;6.87;;;35.90;99.90;;;;;;4962466;28;20191;-73
2023/08/21 12:22:39;;;;;;;7.70;7.10;;;35.80;99.90;;;;;;4966808;28;20183;-75
2023/08/21 12:25:06;;;;;;;10.73;7.03;;;36.10;99.90;;;;;;4962949;28;20487;-73
2023/08/21 12:27:31;;;;;;;8.63;7.80;;;36.40;99.10;;;;;;4959647;28;20438;-72
2023/08/21 12:29:57;;;;;;;8.60;7.70;;;36.70;97.70;;;;;;4960524;28;20457;-72
2023/08/21 12:32:22;;;;;;;7.83;6.30;;;36.80;97.10;;;;;;4958026;28;20648;-72
2023/08/21 12:34:48;;;;;;;7.50;6.80;;;37.00;95.30;;;;;;4965104;28;20217;-73
2023/08/21 12:37:14;;;;;;;8.37;7.67;;;37.00;95.00;;;;;;4960081;28;20293;-73
2023/08/21 12:39:39;;;;;;;9.93;7.70;;;37.00;94.00;;;;;;4961339;28;20190;-73